Terminal Aerodrome Forecast
Issued by NWS Billings, MT

Home | Current Version | Previous Version | Graphics & Text | Print | Product List | Glossary On
Versions: 1 2 3 4 5 6 7 8 9 10 11 12 13 14 15 16 17 18 19 20 21 22 23 24 25 26 27 28 29 30 31 32 33 34
000
FTUS45 KBYZ 221120
TAFMLS
TAF
KMLS 221120Z 2212/2312 16008KT P6SM SCT100 BKN200 WS017/28040KT
     FM221500 25015G25KT P6SM SCT100 BKN200
     FM230000 28008KT P6SM BKN200=

USA.gov is the U.S. government's official web portal to all federal, state and local government web resources and services.